createdAt,value
2022-10-18T00:00:43.845Z,66.35
2022-10-18T00:03:32.245Z,66.47
2022-10-18T00:06:00.879Z,66.59
2022-10-18T00:08:29.263Z,66.56
2022-10-18T00:10:57.162Z,66.62
2022-10-18T00:13:25.088Z,66.74
2022-10-18T00:15:55.820Z,66.71
2022-10-18T00:18:23.800Z,66.91
2022-10-18T00:21:18.992Z,66.85
2022-10-18T00:23:48.382Z,66.98
2022-10-18T00:26:19.317Z,67.08
2022-10-18T00:28:50.602Z,66.99
2022-10-18T00:31:22.024Z,66.94
2022-10-18T00:33:53.032Z,67.13
2022-10-18T00:36:21.757Z,67.18
2022-10-18T00:38:49.721Z,67.24
2022-10-18T00:41:21.784Z,67.24
2022-10-18T00:44:28.013Z,67.35
2022-10-18T00:46:59.704Z,67.43
2022-10-18T00:49:39.857Z,67.46
2022-10-18T00:52:12.095Z,67.38
2022-10-18T00:54:42.353Z,67.41
2022-10-18T00:57:10.505Z,67.44
2022-10-18T00:59:38.694Z,67.55
2022-10-18T01:02:07.408Z,67.55
2022-10-18T01:04:35.315Z,67.60
2022-10-18T01:07:32.037Z,67.45
2022-10-18T01:09:59.952Z,67.49
2022-10-18T01:12:30.508Z,67.52
2022-10-18T01:15:21.244Z,67.62
2022-10-18T01:18:19.441Z,67.27
2022-10-18T01:21:13.228Z,67.37
2022-10-18T01:24:00.283Z,67.27
2022-10-18T01:26:55.657Z,67.13
2022-10-18T01:30:00.984Z,67.05
2022-10-18T01:32:40.032Z,66.88
2022-10-18T01:35:13.418Z,66.84
2022-10-18T01:37:45.793Z,66.79
2022-10-18T01:40:17.333Z,66.64
2022-10-18T01:42:47.668Z,66.54
2022-10-18T01:45:16.918Z,66.65
2022-10-18T01:47:46.655Z,66.67
2022-10-18T01:50:14.670Z,66.66
2022-10-18T01:52:51.996Z,66.52
2022-10-18T01:55:32.683Z,66.78
2022-10-18T01:58:10.805Z,66.73
2022-10-18T02:00:44.928Z,66.63
2022-10-18T02:03:24.083Z,66.62
2022-10-18T02:05:58.323Z,66.62
2022-10-18T02:08:44.866Z,66.63
2022-10-18T02:11:15.187Z,66.64
2022-10-18T02:13:49.889Z,66.85
2022-10-18T02:16:21.555Z,66.65
2022-10-18T02:19:05.395Z,66.72
2022-10-18T02:21:34.279Z,66.63
2022-10-18T02:24:03.539Z,66.68
2022-10-18T02:26:31.366Z,66.68
2022-10-18T02:28:59.122Z,66.82
2022-10-18T02:31:41.123Z,66.56
2022-10-18T02:34:21.074Z,66.62
2022-10-18T02:36:55.184Z,66.61
2022-10-18T02:39:29.910Z,66.58
2022-10-18T02:41:58.301Z,66.63
2022-10-18T02:44:26.457Z,66.68
2022-10-18T02:46:54.426Z,66.61
2022-10-18T02:49:22.582Z,66.67
2022-10-18T02:51:50.258Z,66.57
2022-10-18T02:54:17.874Z,66.53
2022-10-18T02:56:45.597Z,66.62
2022-10-18T02:59:13.239Z,66.62
2022-10-18T03:01:40.975Z,66.54
2022-10-18T03:04:09.176Z,66.42
2022-10-18T03:06:36.961Z,66.43
2022-10-18T03:09:06.331Z,66.58
2022-10-18T03:11:34.131Z,66.55
2022-10-18T03:14:01.969Z,66.53
2022-10-18T03:16:29.836Z,66.60
2022-10-18T03:18:57.495Z,66.72
2022-10-18T03:21:25.159Z,66.45
2022-10-18T03:23:52.762Z,66.71
2022-10-18T03:26:21.721Z,66.74
2022-10-18T03:28:49.459Z,66.66
2022-10-18T03:31:17.407Z,66.96
2022-10-18T03:33:45.203Z,66.71
2022-10-18T03:36:12.966Z,66.90
2022-10-18T03:38:40.729Z,66.77
2022-10-18T03:41:08.493Z,67.05
2022-10-18T03:43:36.077Z,66.81
2022-10-18T03:46:03.916Z,66.87
2022-10-18T03:48:31.572Z,67.09
2022-10-18T03:50:59.248Z,66.91
2022-10-18T03:53:26.863Z,67.06
2022-10-18T03:55:56.033Z,67.30
2022-10-18T03:58:24.228Z,67.11
2022-10-18T04:00:53.172Z,67.13
2022-10-18T04:03:22.655Z,67.17
2022-10-18T04:05:50.610Z,67.31
2022-10-18T04:08:18.845Z,67.49
2022-10-18T04:10:46.720Z,67.63
2022-10-18T04:13:14.306Z,67.54
2022-10-18T04:15:43.006Z,67.61
2022-10-18T04:18:10.670Z,67.49
2022-10-18T04:20:38.473Z,67.48
2022-10-18T04:23:06.158Z,67.72
2022-10-18T04:25:33.814Z,67.81
2022-10-18T04:28:01.503Z,67.75
2022-10-18T04:30:29.094Z,67.59
2022-10-18T04:32:56.723Z,67.89
2022-10-18T04:35:25.992Z,67.94
2022-10-18T04:37:54.202Z,67.86
2022-10-18T04:40:21.794Z,68.15
2022-10-18T04:42:49.377Z,68.04
2022-10-18T04:45:17.078Z,67.91
2022-10-18T04:47:44.667Z,68.21
2022-10-18T04:50:12.282Z,68.05
2022-10-18T04:52:39.920Z,68.09
2022-10-18T04:55:07.904Z,68.20
2022-10-18T04:57:35.539Z,68.32
2022-10-18T05:00:04.391Z,68.35
2022-10-18T05:02:32.289Z,68.34
2022-10-18T05:04:59.969Z,68.28
2022-10-18T05:07:27.572Z,68.44
2022-10-18T05:09:55.232Z,68.21
2022-10-18T05:12:22.896Z,68.35
2022-10-18T05:14:50.555Z,68.33
2022-10-18T05:17:18.215Z,68.30
2022-10-18T05:19:45.785Z,68.49
2022-10-18T05:22:13.392Z,68.47
2022-10-18T05:24:41.097Z,68.47
2022-10-18T05:27:10.283Z,68.51
2022-10-18T05:29:37.952Z,68.46
2022-10-18T05:32:05.560Z,68.50
2022-10-18T05:34:33.168Z,68.57
2022-10-18T05:37:01.567Z,68.54
2022-10-18T05:39:29.190Z,68.60
2022-10-18T05:41:58.306Z,68.65
2022-10-18T05:44:26.375Z,68.73
2022-10-18T05:46:54.045Z,68.63
2022-10-18T05:49:21.720Z,68.69
2022-10-18T05:51:49.771Z,68.67
2022-10-18T05:54:17.631Z,68.58
2022-10-18T05:56:45.319Z,68.81
2022-10-18T05:59:13.260Z,68.71
2022-10-18T06:01:42.662Z,68.81
2022-10-18T06:04:10.527Z,68.84
2022-10-18T06:06:38.853Z,69.09
2022-10-18T06:09:08.289Z,69.02
2022-10-18T06:11:37.113Z,68.89
2022-10-18T06:14:05.218Z,68.93
2022-10-18T06:16:33.025Z,68.89
2022-10-18T06:19:00.897Z,68.94
2022-10-18T06:21:28.657Z,69.05
2022-10-18T06:23:58.986Z,68.91
2022-10-18T06:26:28.098Z,68.93
2022-10-18T06:28:56.104Z,69.09
2022-10-18T06:31:23.839Z,69.12
2022-10-18T06:33:51.573Z,69.05
2022-10-18T06:36:24.259Z,69.07
2022-10-18T06:38:52.404Z,69.23
2022-10-18T06:41:20.594Z,69.12
2022-10-18T06:43:53.876Z,69.19
2022-10-18T06:46:21.652Z,69.45
2022-10-18T06:48:49.419Z,69.20
2022-10-18T06:51:18.444Z,69.28
2022-10-18T06:53:59.234Z,69.33
2022-10-18T06:56:35.219Z,69.12
2022-10-18T06:59:02.998Z,69.16
2022-10-18T07:01:31.055Z,69.24
2022-10-18T07:03:58.852Z,68.80
2022-10-18T07:06:26.924Z,68.95
2022-10-18T07:08:54.874Z,68.82
2022-10-18T07:11:25.834Z,68.82
2022-10-18T07:13:55.440Z,68.54
2022-10-18T07:16:23.156Z,68.51
2022-10-18T07:18:51.771Z,68.56
2022-10-18T07:21:22.391Z,68.31
2022-10-18T07:23:51.694Z,68.53
2022-10-18T07:26:25.332Z,68.56
2022-10-18T07:28:57.970Z,68.38
2022-10-18T07:31:26.239Z,68.36
2022-10-18T07:33:54.616Z,68.53
2022-10-18T07:36:22.517Z,68.15
2022-10-18T07:38:52.086Z,68.08
2022-10-18T07:41:20.283Z,68.11
2022-10-18T07:43:51.048Z,68.20
2022-10-18T07:46:20.927Z,67.93
2022-10-18T07:48:49.322Z,67.93
2022-10-18T07:51:18.688Z,67.67
2022-10-18T07:53:46.310Z,67.60
2022-10-18T07:56:16.634Z,67.65
2022-10-18T07:58:46.211Z,67.46
2022-10-18T08:01:14.859Z,67.12
2022-10-18T08:03:43.459Z,67.08
2022-10-18T08:06:13.085Z,67.22
2022-10-18T08:08:41.294Z,67.05
2022-10-18T08:11:11.768Z,66.87
2022-10-18T08:13:39.509Z,66.79
2022-10-18T08:16:09.824Z,66.78
2022-10-18T08:18:38.205Z,66.80
2022-10-18T08:21:08.742Z,66.91
2022-10-18T08:23:37.440Z,66.49
2022-10-18T08:26:08.736Z,66.51
2022-10-18T08:28:37.131Z,66.54
2022-10-18T08:31:07.879Z,66.48
2022-10-18T08:33:36.292Z,66.45
2022-10-18T08:36:06.212Z,66.32
2022-10-18T08:38:36.171Z,66.39
2022-10-18T08:41:37.925Z,66.31
2022-10-18T08:44:14.309Z,66.35
2022-10-18T08:46:45.939Z,66.26
2022-10-18T08:49:28.585Z,65.97
2022-10-18T08:51:57.875Z,66.02
2022-10-18T08:54:44.487Z,65.97
2022-10-18T08:57:16.059Z,65.55
2022-10-18T08:59:44.513Z,65.68
2022-10-18T09:02:33.740Z,65.75
2022-10-18T09:05:10.755Z,65.71
2022-10-18T09:08:11.687Z,65.33
2022-10-18T09:11:02.062Z,65.10
2022-10-18T09:14:02.319Z,65.50
2022-10-18T09:16:50.339Z,65.25
2022-10-18T09:19:29.733Z,65.12
2022-10-18T09:22:07.460Z,65.07
2022-10-18T09:24:52.170Z,65.01
2022-10-18T09:27:22.572Z,64.70
2022-10-18T09:30:08.464Z,64.70
2022-10-18T09:32:48.728Z,64.92
2022-10-18T09:35:33.963Z,64.79
2022-10-18T09:38:05.833Z,64.78
2022-10-18T09:40:37.837Z,64.68
2022-10-18T09:43:17.251Z,64.64
2022-10-18T09:45:47.162Z,64.50
2022-10-18T09:48:21.233Z,64.73
2022-10-18T09:51:03.480Z,64.55
2022-10-18T09:53:38.644Z,64.47
2022-10-18T09:56:06.480Z,64.45
2022-10-18T09:58:48.490Z,64.50
2022-10-18T10:01:24.740Z,64.46
2022-10-18T10:03:53.146Z,64.32
2022-10-18T10:06:49.754Z,64.06
2022-10-18T10:09:21.370Z,64.18
2022-10-18T10:11:50.989Z,64.26
2022-10-18T10:14:23.184Z,64.09
2022-10-18T10:16:52.691Z,63.89
2022-10-18T10:19:42.737Z,63.85
2022-10-18T10:22:13.299Z,63.58
2022-10-18T10:24:51.099Z,63.59
2022-10-18T10:27:18.960Z,63.49
2022-10-18T10:29:46.682Z,63.50
2022-10-18T10:32:17.407Z,63.53
2022-10-18T10:34:45.425Z,63.60
2022-10-18T10:37:37.790Z,63.50
2022-10-18T10:40:17.979Z,63.46
2022-10-18T10:43:12.813Z,63.40
2022-10-18T10:45:58.499Z,63.16
2022-10-18T10:48:32.335Z,63.17
2022-10-18T10:51:06.219Z,63.14
2022-10-18T10:53:57.634Z,62.84
2022-10-18T10:56:29.696Z,63.12
2022-10-18T10:59:07.419Z,63.18
2022-10-18T11:01:36.483Z,63.13
2022-10-18T11:04:24.083Z,63.13
2022-10-18T11:07:09.181Z,63.00
2022-10-18T11:09:51.610Z,63.06
2022-10-18T11:12:37.966Z,62.68
2022-10-18T11:15:18.350Z,62.72
2022-10-18T11:17:57.587Z,62.87
2022-10-18T11:20:35.278Z,62.94
2022-10-18T11:23:07.440Z,63.05
2022-10-18T11:26:02.551Z,62.86
2022-10-18T11:28:32.965Z,62.99
2022-10-18T11:31:27.563Z,63.06
2022-10-18T11:34:11.687Z,63.22
2022-10-18T11:37:30.082Z,63.28
2022-10-18T11:40:16.985Z,63.11
2022-10-18T11:43:10.440Z,63.09
2022-10-18T11:45:53.260Z,63.23
2022-10-18T11:48:26.752Z,63.13
2022-10-18T11:51:06.396Z,62.93
2022-10-18T11:54:06.831Z,62.97
2022-10-18T11:56:49.517Z,63.20
2022-10-18T11:59:52.116Z,62.77
2022-10-18T12:02:49.896Z,62.84
2022-10-18T12:05:23.668Z,62.83
2022-10-18T12:08:10.891Z,62.89
2022-10-18T12:10:59.859Z,62.49
2022-10-18T12:13:36.946Z,62.68
2022-10-18T12:16:06.979Z,62.69
2022-10-18T12:18:41.715Z,62.76
2022-10-18T12:21:12.866Z,62.63
2022-10-18T12:23:46.750Z,62.61
2022-10-18T12:26:15.171Z,62.48
2022-10-18T12:28:53.858Z,62.66
2022-10-18T12:31:49.254Z,62.66
2022-10-18T12:34:22.742Z,62.61
2022-10-18T12:39:51.842Z,62.75
2022-10-18T12:42:33.382Z,62.67
2022-10-18T12:45:19.737Z,62.60
2022-10-18T12:47:47.425Z,62.59
2022-10-18T12:50:27.253Z,62.61
2022-10-18T12:53:10.167Z,62.43
2022-10-18T12:55:44.269Z,62.37
2022-10-18T12:58:15.012Z,62.60
2022-10-18T13:00:42.668Z,62.67
2022-10-18T13:03:13.196Z,62.59
2022-10-18T13:05:54.521Z,62.59
2022-10-18T13:08:30.145Z,62.78
2022-10-18T13:11:10.256Z,62.72
2022-10-18T13:14:00.518Z,62.91
2022-10-18T13:16:31.176Z,62.83
2022-10-18T13:19:10.822Z,62.91
2022-10-18T13:22:13.627Z,62.89
2022-10-18T13:25:04.209Z,63.11
2022-10-18T13:27:38.406Z,63.01
2022-10-18T13:30:05.953Z,63.04
2022-10-18T13:33:08.676Z,63.03
2022-10-18T13:35:54.890Z,63.12
2022-10-18T13:39:02.814Z,63.16
2022-10-18T13:41:56.551Z,63.24
2022-10-18T13:44:40.496Z,63.31
2022-10-18T13:47:11.084Z,63.32
2022-10-18T13:49:38.675Z,63.41
2022-10-18T13:52:41.836Z,63.28
2022-10-18T13:55:32.565Z,63.43
2022-10-18T13:58:22.049Z,63.47
2022-10-18T14:00:52.885Z,63.53
2022-10-18T14:04:10.418Z,63.61
2022-10-18T14:06:44.026Z,63.61
2022-10-18T14:12:23.961Z,63.81
2022-10-18T14:15:10.492Z,63.79
2022-10-18T14:17:44.497Z,63.82
2022-10-18T14:20:19.533Z,63.92
2022-10-18T14:23:01.731Z,63.96
2022-10-18T14:25:32.943Z,64.10
2022-10-18T14:28:36.300Z,64.14
2022-10-18T14:31:14.890Z,64.30
2022-10-18T14:33:43.779Z,64.38
2022-10-18T14:36:19.118Z,64.26
2022-10-18T14:39:05.259Z,64.53
2022-10-18T14:41:35.495Z,64.54
2022-10-18T14:44:14.972Z,64.57
2022-10-18T14:46:46.933Z,64.69
2022-10-18T14:49:15.590Z,64.75
2022-10-18T14:51:45.838Z,64.79
2022-10-18T14:54:19.692Z,64.88
2022-10-18T14:56:48.140Z,64.98
2022-10-18T14:59:21.989Z,65.12
2022-10-18T15:01:56.048Z,65.13
2022-10-18T15:04:32.596Z,65.14
2022-10-18T15:07:03.140Z,65.23
2022-10-18T15:09:33.460Z,65.39
2022-10-18T15:12:05.728Z,65.38
2022-10-18T15:14:34.830Z,65.52
2022-10-18T15:17:14.011Z,65.53
2022-10-18T15:19:54.401Z,65.88
2022-10-18T15:22:32.200Z,66.23
2022-10-18T15:25:09.453Z,66.71
2022-10-18T15:30:43.195Z,66.81
2022-10-18T15:33:23.367Z,67.04
2022-10-18T15:35:52.731Z,66.88
2022-10-18T15:38:21.663Z,67.30
2022-10-18T15:40:50.018Z,67.78
2022-10-18T15:43:24.204Z,68.59
2022-10-18T15:46:05.277Z,68.91
2022-10-18T15:48:40.516Z,69.69
2022-10-18T15:51:24.292Z,70.28
2022-10-18T15:53:55.423Z,71.50
2022-10-18T15:56:35.710Z,72.53
2022-10-18T15:59:23.762Z,73.50
2022-10-18T16:01:52.344Z,74.06
2022-10-18T16:04:24.233Z,74.42
2022-10-18T16:06:52.528Z,74.74
2022-10-18T16:09:22.118Z,74.43
2022-10-18T16:11:56.387Z,74.25
2022-10-18T16:14:26.044Z,74.29
2022-10-18T16:16:56.584Z,74.01
2022-10-18T16:19:24.452Z,74.24
2022-10-18T16:21:54.161Z,74.41
2022-10-18T16:24:22.952Z,74.57
2022-10-18T16:26:51.342Z,74.70
2022-10-18T16:29:24.509Z,75.02
2022-10-18T16:31:53.712Z,75.44
2022-10-18T16:34:33.058Z,75.29
2022-10-18T16:37:01.237Z,75.37
2022-10-18T16:39:32.173Z,75.71
2022-10-18T16:41:59.976Z,76.05
2022-10-18T16:44:28.093Z,76.26
2022-10-18T16:46:56.440Z,76.54
2022-10-18T16:49:26.066Z,76.47
2022-10-18T16:51:54.348Z,76.56
2022-10-18T16:54:22.941Z,76.61
2022-10-18T16:56:50.697Z,76.82
2022-10-18T16:59:30.185Z,76.89
2022-10-18T17:01:58.009Z,77.41
2022-10-18T17:04:25.867Z,77.37
2022-10-18T17:06:57.289Z,78.01
2022-10-18T17:09:25.185Z,77.63
2022-10-18T17:11:52.841Z,77.96
2022-10-18T17:14:20.708Z,78.00
2022-10-18T17:16:52.319Z,78.00
2022-10-18T17:19:23.606Z,78.52
2022-10-18T17:21:51.233Z,79.15
2022-10-18T17:24:18.828Z,80.07
2022-10-18T17:26:46.502Z,79.68
2022-10-18T17:29:14.328Z,80.55
2022-10-18T17:31:42.101Z,80.10
2022-10-18T17:34:09.724Z,79.95
2022-10-18T17:36:38.132Z,80.07
2022-10-18T17:39:05.742Z,80.06
2022-10-18T17:41:33.474Z,80.24
2022-10-18T17:44:03.701Z,80.27
2022-10-18T17:46:31.975Z,80.79
2022-10-18T17:48:59.581Z,80.52
2022-10-18T17:51:27.173Z,80.55
2022-10-18T17:53:54.848Z,80.22
2022-10-18T17:56:22.525Z,80.52
2022-10-18T17:58:51.613Z,80.58
2022-10-18T18:01:23.842Z,80.58
2022-10-18T18:03:57.269Z,80.78
2022-10-18T18:06:34.174Z,80.77
2022-10-18T18:09:07.331Z,80.35
2022-10-18T18:11:36.681Z,80.62
2022-10-18T18:14:09.732Z,80.52
2022-10-18T18:16:40.131Z,80.40
2022-10-18T18:19:10.079Z,80.64
2022-10-18T18:21:39.409Z,80.43
2022-10-18T18:24:08.168Z,80.60
2022-10-18T18:26:37.611Z,81.19
2022-10-18T18:29:05.505Z,80.87
2022-10-18T18:31:38.754Z,80.86
2022-10-18T18:34:09.824Z,81.02
2022-10-18T18:36:37.511Z,80.82
2022-10-18T18:39:06.019Z,81.02
2022-10-18T18:41:33.756Z,80.68
2022-10-18T18:44:04.484Z,80.89
2022-10-18T18:46:36.937Z,80.91
2022-10-18T18:49:06.183Z,80.84
2022-10-18T18:51:37.449Z,81.04
2022-10-18T18:54:05.660Z,81.15
2022-10-18T18:56:34.141Z,81.23
2022-10-18T18:59:02.332Z,81.21
2022-10-18T19:01:33.302Z,81.10
2022-10-18T19:04:01.508Z,81.30
2022-10-18T19:06:32.172Z,81.36
2022-10-18T19:09:04.936Z,81.79
2022-10-18T19:11:36.144Z,81.71
2022-10-18T19:14:04.612Z,81.69
2022-10-18T19:16:36.256Z,81.97
2022-10-18T19:19:14.256Z,81.77
2022-10-18T19:21:47.524Z,82.23
2022-10-18T19:24:15.687Z,82.26
2022-10-18T19:26:49.401Z,82.29
2022-10-18T19:29:24.647Z,82.32
2022-10-18T19:31:54.561Z,82.41
2022-10-18T19:34:24.285Z,82.49
2022-10-18T19:36:52.409Z,82.73
2022-10-18T19:39:25.708Z,82.85
2022-10-18T19:41:56.361Z,82.62
2022-10-18T19:44:27.512Z,82.96
2022-10-18T19:46:55.469Z,83.18
2022-10-18T19:49:23.441Z,83.20
2022-10-18T19:51:51.101Z,83.00
2022-10-18T19:54:18.743Z,83.10
2022-10-18T19:56:46.929Z,82.94
2022-10-18T19:59:17.037Z,83.19
2022-10-18T20:01:45.540Z,82.84
2022-10-18T20:04:13.500Z,83.23
2022-10-18T20:06:42.804Z,83.18
2022-10-18T20:09:14.682Z,83.41
2022-10-18T20:11:45.594Z,83.40
2022-10-18T20:14:13.258Z,83.52
2022-10-18T20:16:41.224Z,83.60
2022-10-18T20:19:09.700Z,83.71
2022-10-18T20:21:37.434Z,83.54
2022-10-18T20:24:06.596Z,83.53
2022-10-18T20:26:35.839Z,83.70
2022-10-18T20:29:04.350Z,83.61
2022-10-18T20:31:35.783Z,83.61
2022-10-18T20:34:09.121Z,84.03
2022-10-18T20:36:37.248Z,83.92
2022-10-18T20:39:06.533Z,83.87
2022-10-18T20:41:38.109Z,84.01
2022-10-18T20:44:10.704Z,84.27
2022-10-18T20:46:39.161Z,84.41
2022-10-18T20:49:08.664Z,84.34
2022-10-18T20:51:36.443Z,84.49
2022-10-18T20:56:39.449Z,84.57
2022-10-18T20:59:10.042Z,84.60
2022-10-18T21:01:39.626Z,84.79
2022-10-18T21:04:09.996Z,85.05
2022-10-18T21:06:41.032Z,85.21
2022-10-18T21:09:12.384Z,85.24
2022-10-18T21:11:42.385Z,85.58
2022-10-18T21:14:13.666Z,85.18
2022-10-18T21:16:42.890Z,85.41
2022-10-18T21:19:16.638Z,85.46
2022-10-18T21:21:47.282Z,85.59
2022-10-18T21:24:14.991Z,85.85
2022-10-18T21:26:43.214Z,86.41
2022-10-18T21:29:12.625Z,86.78
2022-10-18T21:31:42.438Z,86.57
2022-10-18T21:34:16.015Z,86.12
2022-10-18T21:36:47.568Z,86.13
2022-10-18T21:39:18.962Z,86.33
2022-10-18T21:41:47.080Z,86.34
2022-10-18T21:44:15.879Z,85.99
2022-10-18T21:46:43.844Z,86.40
2022-10-18T21:49:11.797Z,86.73
2022-10-18T21:51:40.000Z,86.50
2022-10-18T21:54:12.355Z,86.29
2022-10-18T21:56:40.653Z,86.84
2022-10-18T21:59:11.175Z,86.81
2022-10-18T22:01:39.875Z,86.81
2022-10-18T22:04:16.999Z,87.02
2022-10-18T22:06:44.633Z,87.14
2022-10-18T22:09:12.275Z,87.05
2022-10-18T22:11:50.282Z,87.15
2022-10-18T22:14:18.002Z,87.10
2022-10-18T22:16:45.776Z,87.01
2022-10-18T22:19:13.645Z,87.27
2022-10-18T22:21:41.240Z,86.86
2022-10-18T22:24:10.056Z,86.96
2022-10-18T22:26:40.828Z,86.93
2022-10-18T22:29:20.901Z,86.86
2022-10-18T22:31:51.099Z,87.18
2022-10-18T22:34:27.538Z,87.56
2022-10-18T22:36:56.447Z,87.71
2022-10-18T22:39:24.838Z,87.82
2022-10-18T22:41:55.905Z,87.51
2022-10-18T22:44:24.246Z,87.72
2022-10-18T22:46:52.094Z,87.89
2022-10-18T22:49:19.770Z,88.05
2022-10-18T22:51:47.534Z,88.00
2022-10-18T22:54:15.302Z,87.75
2022-10-18T22:56:43.259Z,87.60
2022-10-18T22:59:10.856Z,87.87
2022-10-18T23:01:38.791Z,87.83
2022-10-18T23:04:06.453Z,87.88
2022-10-18T23:06:36.071Z,87.81
2022-10-18T23:09:10.581Z,87.57
2022-10-18T23:11:38.226Z,87.95
2022-10-18T23:14:06.849Z,87.67
2022-10-18T23:16:34.587Z,87.61
2022-10-18T23:19:02.555Z,87.65
2022-10-18T23:21:30.212Z,87.78
2022-10-18T23:23:57.985Z,87.80
2022-10-18T23:26:27.904Z,87.77
2022-10-18T23:28:56.471Z,88.10
2022-10-18T23:31:30.277Z,88.17
2022-10-18T23:34:01.009Z,88.06
2022-10-18T23:36:29.390Z,88.08
2022-10-18T23:38:57.297Z,88.10
2022-10-18T23:41:25.837Z,88.02
2022-10-18T23:43:54.021Z,87.80
2022-10-18T23:46:22.182Z,87.78
2022-10-18T23:48:50.235Z,87.69
2022-10-18T23:51:18.333Z,87.61
2022-10-18T23:53:46.477Z,87.55
2022-10-18T23:56:16.302Z,87.56
2022-10-18T23:58:45.158Z,87.60
